Terminal Aerodrome Forecast
Issued by NWS

Home | Current Version | Previous Version | Text Only | Print | Product List | Glossary On
Versions: 1 2 3 4 5 6 7 8 9 10 11 12 13 14 15 16 17 18 19 20 21 22 23 24
000
FTUS45 KTFX 250520
TAFCTB
TAF
KCTB 250520Z 2506/2606 01008KT P6SM -SHRA FEW030 BKN050 OVC080
     FM250900 25008KT 4SM -SHRA SCT003 OVC010
      TEMPO 2511/2514 3SM -SHRASN
     FM251800 03007KT P6SM -SHRA BKN025
     FM252200 05007KT P6SM -SHRA BKN025 PROB30 2522/2602 4SM -TSRA
      BKN020CB=

USA.gov is the U.S. government's official web portal to all federal, state and local government web resources and services.